Time;durP1;ratioP1;P1;durP2;ratioP2;P2;SDS_P1;SDS_P2;PMS_P1;PMS_P2;Temp;Humidity;BMP_temperature;BMP_pressure;BME280_temperature;BME280_humidity;BME280_pressure;Samples;Min_cycle;Max_cycle;Signal;HPM_P1;HPM_P2
2022/05/09 00:00:20;;;;;;;11.75;7.10;;;14.20;72.80;;;;;;4973524;28;20037;-16
2022/05/09 00:02:47;;;;;;;9.98;6.68;;;14.10;73.00;;;;;;4974838;28;20113;-17
2022/05/09 00:05:16;;;;;;;13.23;9.30;;;14.10;73.10;;;;;;4975192;28;20069;-15
2022/05/09 00:07:44;;;;;;;10.27;7.38;;;14.00;73.20;;;;;;4975073;28;20026;-15
2022/05/09 00:10:13;;;;;;;10.70;6.35;;;14.00;73.10;;;;;;4974675;28;20403;-15
2022/05/09 00:12:39;;;;;;;14.55;8.57;;;14.00;73.10;;;;;;4975141;28;20508;-16
2022/05/09 00:15:06;;;;;;;10.60;6.72;;;13.90;73.10;;;;;;4974964;28;20049;-17
2022/05/09 00:17:32;;;;;;;13.15;8.18;;;13.90;73.10;;;;;;4975016;28;20030;-15
2022/05/09 00:19:58;;;;;;;13.63;8.15;;;13.90;73.20;;;;;;4974717;28;20029;-17
2022/05/09 00:22:24;;;;;;;11.65;8.05;;;13.90;73.00;;;;;;4974330;28;20475;-15
2022/05/09 00:24:50;;;;;;;13.20;7.40;;;13.90;73.00;;;;;;4974530;28;20562;-15
2022/05/09 00:27:16;;;;;;;11.75;6.80;;;13.90;73.00;;;;;;4974722;28;20069;-15
2022/05/09 00:29:42;;;;;;;12.95;7.53;;;13.90;72.90;;;;;;4974787;28;20476;-15
2022/05/09 00:32:09;;;;;;;10.45;6.72;;;13.90;73.00;;;;;;4974701;28;20031;-14
2022/05/09 00:34:37;;;;;;;8.73;6.28;;;13.90;73.00;;;;;;4974679;28;20031;-14
2022/05/09 00:37:05;;;;;;;10.15;6.57;;;13.90;72.90;;;;;;4974678;28;20035;-14
2022/05/09 00:39:33;;;;;;;9.48;5.65;;;13.90;72.80;;;;;;4974380;28;20037;-15
2022/05/09 00:42:12;;;;;;;9.38;6.00;;;13.90;72.90;;;;;;4974273;28;20038;-15
2022/05/09 00:44:39;;;;;;;7.18;5.32;;;13.80;73.10;;;;;;4974361;28;20109;-15
2022/05/09 00:47:06;;;;;;;8.85;5.47;;;13.70;73.10;;;;;;4974611;28;20109;-15
2022/05/09 00:49:31;;;;;;;10.90;7.30;;;13.70;73.40;;;;;;4973072;28;20027;-15
2022/05/09 00:52:29;;;;;;;9.43;6.07;;;13.70;73.80;;;;;;4974221;28;20033;-14
2022/05/09 00:54:58;;;;;;;9.23;6.28;;;13.60;73.80;;;;;;4978010;28;20062;-16
2022/05/09 00:57:36;;;;;;;13.93;8.40;;;13.50;73.90;;;;;;4978475;28;20033;-14
2022/05/09 01:00:12;;;;;;;10.63;6.43;;;13.50;74.00;;;;;;4978408;28;20386;-15
2022/05/09 01:02:41;;;;;;;13.48;7.75;;;13.50;74.30;;;;;;4977931;28;20113;-14
2022/05/09 01:05:07;;;;;;;12.55;7.28;;;13.50;74.40;;;;;;4978044;28;20019;-15
2022/05/09 01:07:34;;;;;;;10.48;6.72;;;13.50;74.50;;;;;;4978813;28;20114;-15
2022/05/09 01:10:01;;;;;;;15.45;7.80;;;13.50;74.60;;;;;;4977808;28;20027;-14
2022/05/09 01:12:32;;;;;;;12.07;7.75;;;13.50;74.60;;;;;;4977733;28;20062;-15
2022/05/09 01:15:01;;;;;;;10.07;6.85;;;13.50;74.90;;;;;;4977877;28;20481;-14
2022/05/09 01:17:28;;;;;;;11.70;7.95;;;13.50;75.00;;;;;;4977836;28;20031;-15
2022/05/09 01:19:55;;;;;;;14.00;7.28;;;13.50;75.10;;;;;;4978113;28;20029;-15
2022/05/09 01:22:28;;;;;;;12.68;6.93;;;13.50;75.30;;;;;;4977795;28;20041;-14
2022/05/09 01:24:57;;;;;;;12.17;7.60;;;13.50;75.30;;;;;;4977810;28;20031;-15
2022/05/09 01:27:23;;;;;;;13.23;7.97;;;13.50;75.70;;;;;;4977978;28;20274;-15
2022/05/09 01:30:13;;;;;;;12.45;7.57;;;13.50;75.70;;;;;;4977842;28;20031;-15
2022/05/09 01:32:43;;;;;;;9.82;6.70;;;13.50;75.90;;;;;;4977935;28;20034;-15
2022/05/09 01:35:17;;;;;;;11.45;7.78;;;13.50;76.20;;;;;;4977610;28;20466;-15
2022/05/09 01:37:47;;;;;;;13.18;9.30;;;13.50;76.30;;;;;;4977590;28;20023;-14
2022/05/09 01:40:15;;;;;;;13.63;8.98;;;13.60;76.60;;;;;;4977290;28;20034;-17
2022/05/09 01:42:42;;;;;;;13.57;7.60;;;13.50;76.50;;;;;;4978157;28;20015;-14
2022/05/09 01:45:10;;;;;;;11.57;8.07;;;13.50;76.60;;;;;;4977625;28;20514;-15
2022/05/09 01:50:23;;;;;;;11.93;7.55;;;13.60;76.60;;;;;;4977347;28;20046;-15
2022/05/09 01:52:50;;;;;;;11.45;6.78;;;13.60;76.60;;;;;;4977205;28;20029;-15
2022/05/09 01:55:16;;;;;;;11.10;6.60;;;13.60;76.70;;;;;;4976944;28;20039;-15
2022/05/09 01:57:42;;;;;;;11.48;7.88;;;13.60;76.70;;;;;;4977284;28;20030;-14
2022/05/09 02:00:09;;;;;;;11.68;8.40;;;13.70;76.70;;;;;;4977384;28;20041;-16
2022/05/09 02:02:36;;;;;;;10.85;7.20;;;13.70;76.70;;;;;;4977137;28;20081;-15
2022/05/09 02:05:02;;;;;;;8.50;6.10;;;13.70;76.70;;;;;;4975646;28;20054;-15
2022/05/09 02:07:31;;;;;;;11.30;7.15;;;13.70;76.70;;;;;;4977248;28;20033;-15
2022/05/09 02:09:57;;;;;;;10.35;7.03;;;13.80;76.70;;;;;;4975633;28;20027;-16
2022/05/09 02:12:24;;;;;;;12.20;6.97;;;13.80;76.80;;;;;;4959249;28;20031;-15
2022/05/09 02:14:50;;;;;;;14.85;8.57;;;13.80;77.00;;;;;;4976784;28;20427;-15
2022/05/09 02:17:17;;;;;;;13.75;8.18;;;13.90;76.90;;;;;;4977017;28;20033;-15
2022/05/09 02:19:44;;;;;;;11.65;7.80;;;13.80;76.80;;;;;;4976902;28;20035;-15
2022/05/09 02:22:11;;;;;;;11.38;7.28;;;13.70;76.80;;;;;;4976872;28;20497;-14
2022/05/09 02:24:39;;;;;;;10.45;7.13;;;13.70;76.90;;;;;;4976323;28;20360;-15
2022/05/09 02:27:07;;;;;;;12.05;8.10;;;13.70;77.10;;;;;;4976566;28;20478;-15
2022/05/09 02:29:33;;;;;;;10.68;7.47;;;13.60;77.10;;;;;;4976506;28;20027;-15
2022/05/09 02:32:01;;;;;;;11.05;8.07;;;13.50;77.10;;;;;;4976669;28;20090;-15
2022/05/09 02:34:27;;;;;;;12.70;8.13;;;13.50;77.20;;;;;;4976560;28;20035;-15
2022/05/09 02:36:52;;;;;;;9.20;6.90;;;13.50;77.30;;;;;;4976422;28;20115;-15
2022/05/09 02:39:18;;;;;;;12.27;8.40;;;13.40;77.40;;;;;;4975205;28;20038;-15
2022/05/09 02:41:44;;;;;;;11.35;7.32;;;13.40;77.50;;;;;;4976555;28;20023;-15
2022/05/09 02:44:10;;;;;;;9.68;7.13;;;13.40;77.50;;;;;;4976310;28;20475;-15
2022/05/09 02:46:36;;;;;;;10.65;6.85;;;13.40;77.60;;;;;;4976327;28;20027;-15
2022/05/09 02:49:02;;;;;;;9.90;7.07;;;13.40;77.60;;;;;;4976522;28;20434;-15
2022/05/09 02:51:29;;;;;;;11.73;7.32;;;13.40;77.60;;;;;;4976039;28;20039;-15
2022/05/09 02:53:56;;;;;;;12.68;7.10;;;13.40;77.80;;;;;;4976415;28;20050;-15
2022/05/09 02:56:23;;;;;;;11.27;7.65;;;13.40;77.80;;;;;;4975677;28;20051;-15
2022/05/09 02:58:49;;;;;;;10.00;6.88;;;13.30;77.80;;;;;;4974802;28;20026;-14
2022/05/09 03:01:15;;;;;;;11.13;7.05;;;13.30;77.70;;;;;;4976189;28;20019;-16
2022/05/09 03:06:39;;;;;;;9.02;6.15;;;13.30;77.90;;;;;;4953818;28;20050;-15
2022/05/09 03:09:05;;;;;;;9.35;6.10;;;13.20;78.10;;;;;;4975772;28;20031;-15
2022/05/09 03:11:31;;;;;;;8.73;6.00;;;13.20;78.10;;;;;;4975581;28;20030;-15
2022/05/09 03:13:57;;;;;;;11.55;7.60;;;13.20;78.20;;;;;;4976194;28;20030;-15
2022/05/09 03:16:23;;;;;;;13.85;8.95;;;13.10;78.30;;;;;;4975203;28;20049;-16
2022/05/09 03:18:51;;;;;;;11.55;8.35;;;13.10;78.30;;;;;;4974455;28;20026;-15
2022/05/09 03:21:17;;;;;;;16.05;8.27;;;13.00;78.40;;;;;;4976020;28;20038;-15
2022/05/09 03:23:43;;;;;;;14.93;8.07;;;12.90;78.60;;;;;;4975577;28;20039;-15
2022/05/09 03:26:09;;;;;;;12.02;8.23;;;12.80;78.70;;;;;;4975616;28;20114;-14
2022/05/09 03:28:35;;;;;;;12.25;8.23;;;12.80;78.90;;;;;;4975611;28;20053;-16
2022/05/09 03:31:01;;;;;;;12.60;8.23;;;12.70;79.10;;;;;;4975618;28;20466;-15
2022/05/09 03:33:27;;;;;;;11.60;7.45;;;12.70;79.30;;;;;;4975364;28;20027;-16
2022/05/09 03:35:56;;;;;;;9.48;7.03;;;12.70;79.40;;;;;;4975632;28;20057;-15
2022/05/09 03:38:22;;;;;;;11.32;8.18;;;12.60;79.40;;;;;;4975160;28;20030;-15
2022/05/09 03:40:48;;;;;;;12.23;7.93;;;12.60;79.60;;;;;;4975801;28;20022;-15
2022/05/09 03:43:14;;;;;;;9.80;6.72;;;12.60;79.60;;;;;;4975193;28;20041;-15
2022/05/09 03:45:43;;;;;;;8.65;6.35;;;12.60;79.40;;;;;;4975167;28;20031;-15
2022/05/09 03:48:10;;;;;;;10.32;6.32;;;12.60;79.50;;;;;;4975431;28;20027;-15
2022/05/09 03:50:36;;;;;;;10.75;7.10;;;12.60;79.40;;;;;;4974920;28;20031;-15
2022/05/09 03:53:02;;;;;;;10.82;8.27;;;12.50;79.40;;;;;;4975015;28;20065;-17
2022/05/09 03:55:28;;;;;;;10.77;6.65;;;12.50;79.50;;;;;;4974694;28;20074;-16
2022/05/09 03:57:56;;;;;;;12.10;7.25;;;12.50;79.50;;;;;;4975172;28;20059;-15
2022/05/09 04:00:26;;;;;;;12.57;7.22;;;12.40;79.60;;;;;;4975025;28;20074;-16
2022/05/09 04:02:52;;;;;;;12.25;8.18;;;12.40;79.80;;;;;;4975143;28;20022;-15
2022/05/09 04:05:19;;;;;;;14.40;9.02;;;12.40;79.80;;;;;;4974903;28;20038;-16
2022/05/09 04:07:47;;;;;;;11.80;8.30;;;12.40;79.80;;;;;;4975021;28;20109;-15
2022/05/09 04:10:16;;;;;;;12.48;7.60;;;12.40;79.70;;;;;;4974607;28;20611;-18
2022/05/09 04:12:42;;;;;;;11.82;7.97;;;12.30;79.80;;;;;;4973454;28;20519;-15
2022/05/09 04:17:54;;;;;;;10.82;7.10;;;12.40;79.90;;;;;;4974974;28;20148;-15
2022/05/09 04:20:21;;;;;;;12.98;7.80;;;12.30;79.90;;;;;;4974506;28;20026;-16
2022/05/09 04:22:47;;;;;;;12.57;7.32;;;12.40;80.10;;;;;;4975071;28;20026;-15
2022/05/09 04:25:15;;;;;;;10.40;7.05;;;12.40;80.20;;;;;;4974453;28;20148;-17
2022/05/09 04:27:41;;;;;;;9.70;6.68;;;12.40;80.10;;;;;;4973770;28;20037;-16
2022/05/09 04:30:09;;;;;;;11.52;8.52;;;12.40;80.00;;;;;;4974595;28;20023;-15
2022/05/09 04:32:36;;;;;;;13.20;8.32;;;12.40;80.20;;;;;;4974253;28;20034;-15
2022/05/09 04:35:02;;;;;;;10.27;7.28;;;12.40;80.00;;;;;;4974415;28;20070;-15
2022/05/09 04:37:28;;;;;;;11.75;7.47;;;12.50;80.00;;;;;;4974706;28;20110;-15
2022/05/09 04:39:55;;;;;;;10.70;6.78;;;12.50;80.30;;;;;;4974661;28;20034;-15
2022/05/09 04:42:21;;;;;;;12.93;7.20;;;12.60;80.20;;;;;;4974037;28;20062;-15
2022/05/09 04:44:47;;;;;;;10.77;6.93;;;12.70;80.00;;;;;;4974333;28;20379;-15
2022/05/09 04:47:13;;;;;;;12.75;8.57;;;12.80;79.90;;;;;;4974306;28;20023;-16
2022/05/09 04:49:40;;;;;;;15.68;8.65;;;12.80;80.00;;;;;;4974565;28;20035;-16
2022/05/09 04:52:06;;;;;;;10.82;6.88;;;12.90;80.00;;;;;;4974288;28;20106;-16
2022/05/09 04:54:32;;;;;;;14.02;8.23;;;13.00;79.70;;;;;;4974194;28;20068;-17
2022/05/09 04:56:58;;;;;;;12.32;8.00;;;13.10;79.30;;;;;;4973982;28;20093;-15
2022/05/09 04:59:24;;;;;;;12.38;7.90;;;13.20;79.10;;;;;;4974436;28;20439;-16
2022/05/09 05:01:50;;;;;;;11.95;8.00;;;13.30;79.00;;;;;;4974106;28;20054;-15
2022/05/09 05:04:17;;;;;;;12.30;8.25;;;13.40;78.80;;;;;;4974219;28;20022;-15
2022/05/09 05:06:44;;;;;;;12.43;8.48;;;13.50;78.60;;;;;;4974204;28;20035;-16
2022/05/09 05:09:11;;;;;;;10.68;7.50;;;13.70;78.50;;;;;;4974093;28;20479;-16
2022/05/09 05:11:37;;;;;;;13.35;8.15;;;13.90;78.60;;;;;;4974051;28;20047;-15
2022/05/09 05:14:06;;;;;;;12.32;8.00;;;13.90;78.30;;;;;;4974360;28;20058;-15
2022/05/09 05:19:16;;;;;;;14.35;7.72;;;14.30;77.70;;;;;;4974230;28;20042;-14
2022/05/09 05:21:43;;;;;;;12.52;8.10;;;14.40;77.30;;;;;;4974010;28;20030;-16
2022/05/09 05:24:09;;;;;;;12.10;8.05;;;14.60;77.00;;;;;;4974251;28;20114;-16
2022/05/09 05:26:35;;;;;;;11.70;8.13;;;14.70;77.00;;;;;;4973761;28;20086;-16
2022/05/09 05:29:01;;;;;;;16.13;9.45;;;14.90;76.50;;;;;;4973921;28;20027;-16
2022/05/09 05:31:28;;;;;;;13.63;8.80;;;14.90;76.10;;;;;;5056528;23;20026;-11
2022/05/09 05:33:55;;;;;;;12.38;9.27;;;15.10;75.80;;;;;;5027417;23;20055;-14
2022/05/09 05:36:21;;;;;;;13.60;9.23;;;15.30;75.60;;;;;;4973979;28;20118;-15
2022/05/09 05:38:51;;;;;;;14.18;8.90;;;15.40;75.40;;;;;;4974515;28;20078;-14
2022/05/09 05:41:21;;;;;;;14.77;9.63;;;15.50;75.20;;;;;;4977822;28;20056;-15
2022/05/09 05:43:47;;;;;;;13.98;9.00;;;15.70;74.80;;;;;;4977721;28;20162;-15
2022/05/09 05:46:13;;;;;;;15.20;8.82;;;15.80;74.60;;;;;;4977573;28;20061;-15
2022/05/09 05:48:40;;;;;;;13.90;9.70;;;15.90;74.30;;;;;;4977492;28;20026;-15
2022/05/09 05:51:06;;;;;;;11.95;8.63;;;16.00;74.10;;;;;;4977722;28;20509;-15
2022/05/09 05:53:34;;;;;;;11.60;7.72;;;16.10;73.60;;;;;;4977440;28;20035;-15
2022/05/09 05:56:01;;;;;;;14.40;9.50;;;16.30;73.60;;;;;;4977486;28;20105;-15
2022/05/09 05:58:28;;;;;;;17.92;11.00;;;16.50;73.00;;;;;;4976935;28;20027;-15
2022/05/09 06:00:56;;;;;;;24.20;13.05;;;16.60;72.80;;;;;;4977452;28;20034;-14
2022/05/09 06:03:22;;;;;;;12.93;9.27;;;16.70;72.40;;;;;;4977267;28;20023;-15
2022/05/09 06:05:48;;;;;;;16.15;8.70;;;16.90;72.20;;;;;;4977022;28;20027;-14
2022/05/09 06:08:14;;;;;;;15.52;9.95;;;17.00;72.10;;;;;;4976757;28;20386;-16
2022/05/09 06:10:41;;;;;;;16.88;10.30;;;17.20;71.90;;;;;;4977151;28;20022;-14
2022/05/09 06:13:07;;;;;;;12.63;8.93;;;17.40;71.40;;;;;;4977192;28;20066;-15
2022/05/09 06:15:36;;;;;;;13.52;8.85;;;17.60;71.00;;;;;;4976787;28;20027;-15
2022/05/09 06:18:08;;;;;;;11.52;8.32;;;17.80;71.20;;;;;;4976717;28;20478;-15
2022/05/09 06:20:37;;;;;;;15.68;9.77;;;18.00;70.80;;;;;;4976730;28;20042;-16
2022/05/09 06:23:05;;;;;;;18.40;9.77;;;18.20;70.40;;;;;;4977021;28;20031;-15
2022/05/09 06:25:34;;;;;;;14.70;9.40;;;18.40;69.00;;;;;;4976971;28;20082;-15
2022/05/09 06:28:01;;;;;;;12.35;9.07;;;18.50;68.00;;;;;;4976635;28;20537;-15
2022/05/09 06:30:30;;;;;;;13.75;8.25;;;18.70;68.70;;;;;;4976286;28;20498;-16
2022/05/09 06:32:57;;;;;;;15.13;8.95;;;18.90;68.40;;;;;;4976283;28;20454;-15
2022/05/09 06:35:26;;;;;;;10.73;7.85;;;19.10;68.00;;;;;;4976689;28;20030;-15
2022/05/09 06:38:02;;;;;;;12.10;8.15;;;19.30;68.30;;;;;;4975612;28;20026;-15
2022/05/09 06:40:30;;;;;;;11.50;7.43;;;19.60;67.20;;;;;;4976320;28;20023;-15
2022/05/09 06:42:57;;;;;;;12.38;8.13;;;19.90;67.10;;;;;;4975165;28;20508;-15
2022/05/09 06:45:24;;;;;;;13.23;8.88;;;20.10;65.70;;;;;;4976317;28;20395;-15
2022/05/09 06:47:53;;;;;;;13.57;8.07;;;20.40;64.30;;;;;;4976314;28;20479;-15
2022/05/09 06:50:21;;;;;;;11.95;7.10;;;20.50;63.80;;;;;;4975201;28;20509;-15
2022/05/09 06:52:47;;;;;;;13.63;8.50;;;20.60;64.00;;;;;;4976437;28;20049;-15
2022/05/09 06:55:14;;;;;;;10.00;7.35;;;20.90;64.20;;;;;;4976125;28;20483;-15
2022/05/09 06:57:42;;;;;;;10.32;6.78;;;21.20;62.60;;;;;;4976120;28;20035;-15
2022/05/09 07:00:16;;;;;;;11.73;7.50;;;21.50;63.00;;;;;;4976329;28;20023;-14
2022/05/09 07:02:42;;;;;;;12.27;7.25;;;21.70;61.20;;;;;;4974732;28;20441;-14
2022/05/09 07:05:11;;;;;;;9.55;6.07;;;22.00;61.40;;;;;;4976175;28;20022;-15
2022/05/09 07:07:38;;;;;;;10.13;6.90;;;22.40;60.80;;;;;;4975894;28;20384;-15
2022/05/09 07:10:05;;;;;;;12.50;7.38;;;22.90;60.20;;;;;;4975824;28;20096;-15
2022/05/09 07:12:31;;;;;;;10.63;7.20;;;23.20;57.70;;;;;;4975680;28;20043;-15
2022/05/09 07:14:57;;;;;;;9.30;5.95;;;23.30;57.80;;;;;;4974544;28;20038;-15
2022/05/09 07:17:23;;;;;;;10.30;6.63;;;23.50;56.30;;;;;;4975796;28;20022;-15
2022/05/09 07:19:49;;;;;;;13.23;7.50;;;23.90;56.70;;;;;;4975958;28;20050;-15
2022/05/09 07:22:17;;;;;;;10.77;7.05;;;24.20;55.90;;;;;;4975342;28;20049;-16
2022/05/09 07:24:44;;;;;;;10.32;6.68;;;24.50;55.20;;;;;;4975876;28;20022;-15
2022/05/09 07:27:10;;;;;;;11.50;7.63;;;24.80;54.20;;;;;;4975947;28;20089;-14
2022/05/09 07:29:36;;;;;;;10.40;6.40;;;25.00;52.70;;;;;;4975692;28;20027;-15
2022/05/09 07:32:02;;;;;;;9.65;6.88;;;25.20;52.80;;;;;;4975204;28;20031;-15
2022/05/09 07:34:28;;;;;;;8.35;6.30;;;25.40;49.90;;;;;;4975246;28;20030;-15
2022/05/09 07:36:54;;;;;;;11.32;6.93;;;25.50;50.80;;;;;;4975639;28;20044;-15
2022/05/09 07:39:20;;;;;;;10.13;6.93;;;25.70;51.60;;;;;;4975304;28;20027;-15
2022/05/09 07:41:45;;;;;;;10.48;6.95;;;25.70;50.80;;;;;;4975430;28;20094;-15
2022/05/09 07:44:11;;;;;;;13.52;7.60;;;25.60;49.70;;;;;;4975551;28;20026;-16
2022/05/09 07:46:37;;;;;;;8.40;6.20;;;25.60;49.50;;;;;;4974959;28;20081;-16
2022/05/09 07:49:03;;;;;;;10.98;6.18;;;25.60;49.90;;;;;;4975342;28;20027;-14
2022/05/09 07:51:29;;;;;;;10.52;6.10;;;25.70;49.10;;;;;;4975021;28;20113;-15
2022/05/09 07:53:55;;;;;;;11.90;6.65;;;25.90;49.40;;;;;;4975062;28;20019;-14
2022/05/09 07:56:21;;;;;;;8.43;5.40;;;26.00;49.00;;;;;;4974804;28;20027;-15
2022/05/09 07:58:47;;;;;;;9.85;6.38;;;26.10;49.10;;;;;;4975217;28;20102;-15
2022/05/09 08:01:13;;;;;;;9.88;6.05;;;26.30;49.30;;;;;;4974934;28;20101;-15
2022/05/09 08:03:39;;;;;;;8.18;5.70;;;26.50;48.20;;;;;;4973520;28;20410;-14
2022/05/09 08:06:06;;;;;;;8.45;6.20;;;26.60;47.40;;;;;;4975160;28;20486;-14
2022/05/09 08:08:36;;;;;;;10.90;6.55;;;26.50;43.60;;;;;;4974665;28;20491;-15
2022/05/09 08:11:03;;;;;;;9.18;6.03;;;26.50;45.00;;;;;;4975066;28;20038;-15
2022/05/09 08:13:33;;;;;;;13.38;6.65;;;26.60;45.60;;;;;;4975127;28;20046;-15
2022/05/09 08:15:59;;;;;;;13.40;6.95;;;26.60;43.00;;;;;;4974966;28;20035;-15
2022/05/09 08:18:26;;;;;;;9.63;5.85;;;26.60;41.70;;;;;;4974534;28;20386;-16
2022/05/09 08:20:55;;;;;;;12.10;6.45;;;26.50;44.60;;;;;;4974976;28;20070;-15
2022/05/09 08:23:22;;;;;;;8.10;5.75;;;26.50;44.00;;;;;;4974886;28;20390;-15
2022/05/09 08:25:51;;;;;;;11.63;6.57;;;26.50;44.30;;;;;;4974563;28;20041;-15
2022/05/09 08:28:18;;;;;;;9.27;6.53;;;26.50;44.10;;;;;;4974418;28;20081;-15
2022/05/09 08:30:47;;;;;;;10.73;6.00;;;26.60;45.10;;;;;;4974957;28;20041;-15
2022/05/09 08:33:23;;;;;;;11.07;6.57;;;26.50;44.10;;;;;;4974333;28;20050;-15
2022/05/09 08:35:51;;;;;;;9.07;6.15;;;26.30;43.80;;;;;;4974444;28;20031;-15
2022/05/09 08:38:19;;;;;;;12.05;6.30;;;26.30;44.60;;;;;;4974341;28;20144;-15
2022/05/09 08:40:59;;;;;;;11.20;6.80;;;26.30;45.90;;;;;;4974439;28;20403;-15
2022/05/09 08:44:09;;;;;;;9.45;6.30;;;26.30;45.30;;;;;;4974304;28;20509;-16
2022/05/09 08:46:58;;;;;;;10.10;6.15;;;26.50;44.80;;;;;;4974341;28;20479;-15
2022/05/09 08:49:42;;;;;;;9.25;6.25;;;26.70;43.30;;;;;;4974220;28;20031;-14
2022/05/09 08:52:22;;;;;;;10.73;6.28;;;26.60;42.90;;;;;;4974038;28;20067;-14
2022/05/09 08:54:50;;;;;;;8.45;5.80;;;26.50;43.30;;;;;;4974574;28;20161;-13
2022/05/09 08:57:45;;;;;;;9.65;6.72;;;26.50;43.70;;;;;;4974504;28;20069;-14
2022/05/09 09:00:18;;;;;;;14.88;7.03;;;26.70;42.90;;;;;;4974177;28;20027;-14
2022/05/09 09:02:52;;;;;;;;;;;26.70;42.40;;;;;;4974533;28;20026;-13
2022/05/09 09:05:25;;;;;;;10.20;6.30;;;26.80;42.30;;;;;;4974272;28;19906;-14
2022/05/09 09:08:12;;;;;;;8.65;6.10;;;26.90;42.50;;;;;;4974419;28;20031;-14
2022/05/09 09:11:10;;;;;;;8.27;6.00;;;27.00;42.40;;;;;;4973728;28;20570;-13
2022/05/09 09:13:48;;;;;;;8.48;5.80;;;27.10;42.30;;;;;;4974510;28;20027;-14
2022/05/09 09:16:32;;;;;;;7.70;6.18;;;27.40;41.70;;;;;;4977825;28;20045;-14
2022/05/09 09:19:17;;;;;;;8.98;6.10;;;27.40;42.10;;;;;;4978073;28;20118;-15
2022/05/09 09:21:46;;;;;;;10.70;6.50;;;27.40;40.30;;;;;;4978181;28;20041;-14
2022/05/09 09:24:41;;;;;;;6.88;5.60;;;27.30;42.10;;;;;;4978050;28;20031;-14
2022/05/09 09:27:22;;;;;;;10.88;6.43;;;27.40;41.60;;;;;;4977645;28;20496;-14
2022/05/09 09:29:55;;;;;;;12.05;6.88;;;27.70;42.30;;;;;;4977466;28;20407;-14
2022/05/09 09:32:22;;;;;;;7.75;6.30;;;27.90;41.10;;;;;;4976682;28;20159;-14
2022/05/09 09:35:01;;;;;;;10.23;6.50;;;28.20;41.80;;;;;;5016564;23;20062;-18
2022/05/09 09:37:35;;;;;;;9.80;6.22;;;28.40;40.90;;;;;;4956398;28;20099;-14
2022/05/09 09:40:02;;;;;;;8.23;5.72;;;28.50;39.70;;;;;;4958184;29;20110;-16
2022/05/09 09:42:29;;;;;;;10.18;5.88;;;28.60;40.80;;;;;;4957863;28;20611;-15
2022/05/09 09:44:58;;;;;;;10.30;6.25;;;28.80;38.30;;;;;;4958382;28;20034;-15
2022/05/09 09:47:27;;;;;;;9.75;6.20;;;29.00;38.90;;;;;;4958281;28;20088;-14
2022/05/09 09:50:21;;;;;;;11.38;6.43;;;29.30;37.20;;;;;;4958148;28;20023;-15
2022/05/09 09:52:53;;;;;;;10.98;6.57;;;29.10;37.50;;;;;;4917757;29;20526;-15
2022/05/09 09:55:35;;;;;;;8.97;6.87;;;28.90;39.30;;;;;;4917901;29;20068;-15
2022/05/09 09:58:27;;;;;;;11.75;6.97;;;28.90;41.00;;;;;;4917802;29;20270;-15
2022/05/09 10:01:06;;;;;;;13.87;7.00;;;29.20;40.80;;;;;;4917688;29;20028;-17
2022/05/09 10:03:34;;;;;;;8.73;6.95;;;29.10;39.20;;;;;;4917493;29;20763;-15
2022/05/09 10:06:01;;;;;;;10.73;6.90;;;29.10;39.90;;;;;;4917521;29;20052;-15
2022/05/09 10:08:37;;;;;;;12.90;7.00;;;29.20;40.00;;;;;;4917336;29;20036;-14
2022/05/09 10:11:24;;;;;;;11.65;7.15;;;28.90;38.90;;;;;;4917413;29;20527;-15
2022/05/09 10:13:54;;;;;;;9.77;6.78;;;28.40;38.90;;;;;;4917280;29;20032;-15
2022/05/09 10:16:30;;;;;;;8.43;5.82;;;28.50;40.20;;;;;;4917094;29;20038;-15
2022/05/09 10:18:58;;;;;;;16.23;7.32;;;28.90;41.00;;;;;;4917489;29;20043;-15
2022/05/09 10:27:05;;;;;;;8.07;6.80;;;28.60;40.10;;;;;;4916428;29;20392;-16
2022/05/09 10:29:37;;;;;;;9.60;6.45;;;28.40;41.00;;;;;;4933715;29;20039;-15
2022/05/09 10:32:09;;;;;;;10.88;7.63;;;28.50;39.70;;;;;;4957339;28;20043;-15
2022/05/09 10:35:13;;;;;;;10.48;6.93;;;28.60;40.30;;;;;;4957139;28;20031;-15
2022/05/09 10:37:51;;;;;;;11.82;7.32;;;28.90;40.10;;;;;;5019355;23;20054;-15
2022/05/09 10:40:34;;;;;;;12.13;7.10;;;29.10;42.00;;;;;;4974822;28;20034;-15
2022/05/09 10:43:11;;;;;;;;;;;29.10;38.70;;;;;;4976990;28;20054;-15
2022/05/09 10:45:44;;;;;;;9.00;6.90;;;29.40;39.20;;;;;;4976523;28;19953;-15
2022/05/09 10:48:22;;;;;;;8.48;6.43;;;29.80;38.40;;;;;;4976218;28;20034;-15
2022/05/09 10:51:05;;;;;;;8.35;7.10;;;30.00;37.20;;;;;;4975916;28;20034;-14
2022/05/09 10:53:53;;;;;;;10.25;6.72;;;29.70;37.10;;;;;;4976400;28;20033;-15
2022/05/09 10:57:05;;;;;;;7.75;6.38;;;29.50;37.80;;;;;;4976153;28;20019;-15
2022/05/09 10:59:33;;;;;;;10.32;6.85;;;29.90;37.60;;;;;;4935370;29;20027;-15
2022/05/09 11:02:05;;;;;;;11.27;7.00;;;29.70;38.70;;;;;;4935627;29;20102;-15
2022/05/09 11:04:34;;;;;;;11.80;7.18;;;29.90;40.10;;;;;;4935204;29;20036;-15
2022/05/09 11:07:14;;;;;;;8.80;6.40;;;30.10;39.70;;;;;;4935227;29;20032;-15
2022/05/09 11:09:47;;;;;;;9.10;6.50;;;30.10;39.30;;;;;;4935235;29;20036;-15
2022/05/09 11:12:25;;;;;;;7.75;6.30;;;30.00;38.10;;;;;;4935071;29;20123;-17
2022/05/09 11:15:00;;;;;;;9.60;6.72;;;30.60;38.10;;;;;;4935152;29;20063;-15
2022/05/09 11:17:37;;;;;;;9.65;6.40;;;30.50;37.50;;;;;;4935419;29;20470;-15
2022/05/09 11:20:03;;;;;;;10.60;7.05;;;30.50;37.80;;;;;;4935156;29;20034;-15
2022/05/09 11:22:32;;;;;;;7.55;6.50;;;30.70;37.20;;;;;;4934597;29;20036;-15
2022/05/09 11:25:35;;;;;;;9.70;6.75;;;31.10;36.40;;;;;;4935469;29;20442;-15
2022/05/09 11:28:19;;;;;;;11.07;7.40;;;31.50;35.10;;;;;;4935166;29;20031;-15
2022/05/09 11:30:59;;;;;;;10.90;6.72;;;31.60;36.60;;;;;;4966052;28;20490;-13
2022/05/09 11:33:30;;;;;;;7.50;5.50;;;31.60;35.50;;;;;;4975908;28;20505;-14
2022/05/09 11:36:06;;;;;;;8.40;6.88;;;31.80;36.30;;;;;;4975048;28;20086;-14
2022/05/09 11:38:47;;;;;;;9.18;7.18;;;32.20;35.10;;;;;;4974926;28;20023;-13
2022/05/09 11:41:53;;;;;;;10.55;7.07;;;32.30;35.10;;;;;;4975658;28;20054;-13
2022/05/09 11:44:24;;;;;;;9.93;6.40;;;32.10;36.80;;;;;;4956580;28;20054;-13
2022/05/09 11:47:16;;;;;;;10.13;7.10;;;31.80;36.40;;;;;;4975525;28;20022;-13
2022/05/09 11:50:01;;;;;;;11.07;6.93;;;31.90;36.90;;;;;;4975487;28;20027;-14
2022/05/09 11:52:43;;;;;;;10.70;6.32;;;32.30;34.50;;;;;;4975075;28;20042;-14
2022/05/09 11:55:18;;;;;;;10.32;6.95;;;32.60;34.70;;;;;;4975088;28;20553;-15
2022/05/09 11:57:50;;;;;;;7.50;6.35;;;32.60;35.00;;;;;;4975289;28;20035;-13
2022/05/09 12:00:26;;;;;;;9.27;6.53;;;32.70;35.60;;;;;;4974788;28;20034;-14
2022/05/09 12:02:54;;;;;;;9.70;6.95;;;33.00;34.60;;;;;;4974911;28;20078;-14
2022/05/09 12:05:32;;;;;;;10.07;6.85;;;32.10;36.50;;;;;;4974872;28;20031;-14
2022/05/09 12:08:20;;;;;;;9.73;6.63;;;31.20;36.80;;;;;;4974956;28;20054;-13
2022/05/09 12:10:49;;;;;;;9.82;6.07;;;31.70;37.30;;;;;;4974771;28;20031;-13
2022/05/09 12:13:19;;;;;;;7.55;5.63;;;32.10;35.80;;;;;;4975083;28;20031;-14
2022/05/09 12:15:48;;;;;;;9.45;6.70;;;32.40;34.90;;;;;;4975101;28;20134;-14
2022/05/09 12:18:21;;;;;;;7.05;5.78;;;32.40;35.60;;;;;;4974787;28;20102;-13
2022/05/09 12:20:46;;;;;;;9.07;6.60;;;32.70;34.60;;;;;;4974596;28;20121;-14
2022/05/09 12:23:33;;;;;;;9.60;7.00;;;32.40;34.60;;;;;;4974469;28;20294;-14
2022/05/09 12:26:05;;;;;;;10.02;6.90;;;32.10;35.10;;;;;;4974462;28;20035;-14
2022/05/09 12:28:39;;;;;;;10.98;6.70;;;31.70;35.20;;;;;;4974313;28;20027;-13
2022/05/09 12:31:29;;;;;;;10.80;6.82;;;31.40;35.50;;;;;;4974797;28;20038;-13
2022/05/09 12:33:57;;;;;;;10.30;6.78;;;31.40;36.80;;;;;;4974543;28;20098;-13
2022/05/09 12:36:25;;;;;;;9.75;7.35;;;31.40;35.20;;;;;;4973967;28;20133;-13
2022/05/09 12:38:54;;;;;;;9.27;6.78;;;31.50;34.40;;;;;;4973268;28;20023;-13
2022/05/09 12:41:30;;;;;;;9.70;7.30;;;31.30;36.20;;;;;;4974432;28;20033;-13
2022/05/09 12:43:57;;;;;;;10.50;6.90;;;31.20;36.80;;;;;;4973413;28;20015;-13
2022/05/09 12:46:32;;;;;;;10.85;6.85;;;31.30;36.90;;;;;;4974367;28;20027;-13
2022/05/09 12:49:02;;;;;;;8.88;5.90;;;31.40;37.30;;;;;;4974127;28;20023;-13
2022/05/09 12:51:33;;;;;;;8.50;6.53;;;31.30;36.20;;;;;;4974563;28;20030;-13
2022/05/09 12:53:59;;;;;;;10.90;6.55;;;31.00;35.80;;;;;;4974541;28;20528;-13
2022/05/09 12:56:28;;;;;;;10.77;6.47;;;30.40;37.30;;;;;;4974073;28;20027;-13
2022/05/09 12:59:09;;;;;;;10.85;6.03;;;30.60;37.80;;;;;;4974539;28;20027;-15
2022/05/09 13:01:40;;;;;;;9.88;5.93;;;31.10;36.30;;;;;;4974528;28;20029;-13
2022/05/09 13:04:21;;;;;;;11.30;6.05;;;31.20;36.10;;;;;;4974573;28;20035;-13
2022/05/09 13:07:03;;;;;;;7.78;5.50;;;31.40;35.80;;;;;;4974388;28;20093;-15
2022/05/09 13:09:34;;;;;;;9.98;5.97;;;31.80;35.70;;;;;;4974468;28;20037;-14
2022/05/09 13:12:29;;;;;;;10.75;6.18;;;32.10;35.20;;;;;;4974109;28;20093;-14
2022/05/09 13:15:10;;;;;;;7.68;5.93;;;32.50;34.10;;;;;;4974978;28;20118;-14